createdAt,value
2019-01-31T00:05:27.425Z,0.00
2019-01-31T00:10:52.550Z,0.00
2019-01-31T00:16:35.541Z,0.00
2019-01-31T03:03:35.345Z,-0.30
2019-01-31T03:09:16.414Z,-0.40
2019-01-31T03:14:36.888Z,-0.40
2019-01-31T03:20:17.113Z,-0.40
2019-01-31T03:25:55.029Z,-0.60
2019-01-31T03:31:51.990Z,-0.50
2019-01-31T03:37:51.323Z,-0.50
2019-01-31T03:43:24.644Z,-0.60
2019-01-31T03:48:51.315Z,-0.60
2019-01-31T03:54:34.004Z,-0.70
2019-01-31T04:00:11.926Z,-0.70
2019-01-31T04:05:40.665Z,-0.70
2019-01-31T04:10:47.295Z,-0.80
2019-01-31T04:15:54.002Z,-0.70
2019-01-31T04:21:00.487Z,-0.90
2019-01-31T17:41:34.298Z,0.00
2019-01-31T17:46:41.807Z,0.00
2019-01-31T17:51:50.714Z,0.00
2019-01-31T17:56:57.046Z,-0.10
2019-01-31T18:02:03.947Z,-0.20
2019-01-31T18:07:10.350Z,-0.20
2019-01-31T18:12:16.707Z,-0.20
2019-01-31T18:17:23.433Z,-0.30
2019-01-31T18:22:29.864Z,-0.40
2019-01-31T18:27:36.127Z,-0.40
2019-01-31T18:32:42.503Z,-0.40
2019-01-31T18:37:48.834Z,-0.40
2019-01-31T18:42:55.542Z,-0.40
2019-01-31T18:48:02.394Z,-0.50
2019-01-31T18:53:08.811Z,-0.40
2019-01-31T18:58:16.352Z,-0.40
2019-01-31T19:03:22.688Z,-0.40
2019-01-31T19:08:29.168Z,-0.50
2019-01-31T19:13:35.581Z,-0.50
2019-01-31T19:18:42.136Z,-0.50
2019-01-31T19:23:48.943Z,-0.50
2019-01-31T19:28:55.221Z,-0.50
2019-01-31T19:34:01.752Z,-0.50
2019-01-31T19:39:14.290Z,-0.60
2019-01-31T19:44:20.571Z,-0.60
2019-01-31T19:49:31.925Z,-0.60
2019-01-31T19:54:38.229Z,-0.60
2019-01-31T19:59:47.621Z,-0.70
2019-01-31T20:04:54.110Z,-0.70
2019-01-31T20:10:00.463Z,-0.70
2019-01-31T20:15:07.900Z,-0.70
2019-01-31T20:20:20.979Z,-0.70
2019-01-31T20:25:28.649Z,-0.60
2019-01-31T20:30:35.732Z,-0.60
2019-01-31T20:35:42.207Z,-0.60
2019-01-31T20:40:48.912Z,-0.70
2019-01-31T20:45:55.235Z,-0.70
2019-01-31T20:51:01.509Z,-0.70
2019-01-31T20:56:07.784Z,-0.70
2019-01-31T21:01:14.274Z,-0.80
2019-01-31T21:06:20.548Z,-0.90
2019-01-31T21:11:26.917Z,-0.80
2019-01-31T21:16:33.284Z,-0.90
2019-01-31T21:21:39.693Z,-0.80
2019-01-31T21:26:46.109Z,-0.90
2019-01-31T21:31:52.453Z,-0.70
2019-01-31T21:36:58.729Z,-0.70
2019-01-31T21:42:07.892Z,-0.70
2019-01-31T21:47:14.542Z,-0.80
2019-01-31T21:52:20.893Z,-0.80
2019-01-31T21:57:27.351Z,-0.70
2019-01-31T22:02:33.792Z,-0.70
2019-01-31T22:07:40.068Z,-0.70
2019-01-31T22:12:48.107Z,-0.60
2019-01-31T22:17:58.091Z,-0.60
2019-01-31T22:23:04.193Z,-0.50
2019-01-31T22:28:10.562Z,-0.50
2019-01-31T22:33:17.093Z,-0.50
2019-01-31T22:38:23.372Z,-0.40
2019-01-31T22:43:29.923Z,-0.40
2019-01-31T22:48:36.467Z,-0.40
2019-01-31T22:53:42.801Z,-0.40
2019-01-31T22:58:49.248Z,-0.40
2019-01-31T23:03:55.518Z,-0.40
2019-01-31T23:09:01.771Z,-0.40
2019-01-31T23:14:09.597Z,-0.30
2019-01-31T23:19:15.830Z,-0.30
2019-01-31T23:24:22.047Z,-0.30
2019-01-31T23:29:39.620Z,-0.20
2019-01-31T23:34:46.397Z,-0.20
2019-01-31T23:39:52.651Z,-0.20
2019-01-31T23:44:59.009Z,-0.20
2019-01-31T23:50:08.264Z,-0.10
2019-01-31T23:55:15.195Z,-0.10
